Time;durP1;ratioP1;P1;durP2;ratioP2;P2;SDS_P1;SDS_P2;PMS_P1;PMS_P2;Temp;Humidity;BMP_temperature;BMP_pressure;BME280_temperature;BME280_humidity;BME280_pressure;Samples;Min_cycle;Max_cycle;Signal;HPM_P1;HPM_P2
2023/07/03 00:00:18;;;;;;;12.80;3.70;;;18.30;95.70;;;;;;4177308;28;20045;-60
2023/07/03 00:02:19;;;;;;;8.48;3.28;;;18.20;95.70;;;;;;4176707;28;20377;-60
2023/07/03 00:04:19;;;;;;;9.85;3.25;;;18.20;96.60;;;;;;4177084;28;20037;-60
2023/07/03 00:06:20;;;;;;;10.13;3.50;;;18.20;96.10;;;;;;4154598;28;20532;-60
2023/07/03 00:08:20;;;;;;;8.43;3.08;;;18.20;96.50;;;;;;4175711;28;20415;-60
2023/07/03 00:10:21;;;;;;;10.70;3.33;;;18.10;95.70;;;;;;4159029;28;20021;-60
2023/07/03 00:12:21;;;;;;;9.55;3.38;;;18.10;97.20;;;;;;4176630;28;20064;-60
2023/07/03 00:14:22;;;;;;;10.55;3.78;;;18.10;96.90;;;;;;4173861;28;20090;-60
2023/07/03 00:16:22;;;;;;;15.23;4.22;;;18.10;96.20;;;;;;4173744;28;20045;-60
2023/07/03 00:18:23;;;;;;;8.80;3.03;;;18.00;96.30;;;;;;4171994;28;20037;-60
2023/07/03 00:20:24;;;;;;;9.98;3.55;;;18.00;97.70;;;;;;4174447;28;20056;-60
2023/07/03 00:22:25;;;;;;;13.60;3.58;;;17.90;96.60;;;;;;4173681;28;20045;-60
2023/07/03 00:24:26;;;;;;;8.13;3.05;;;17.90;97.30;;;;;;4172296;28;20037;-60
2023/07/03 00:26:26;;;;;;;10.07;3.38;;;17.90;97.20;;;;;;4176453;28;20030;-60
2023/07/03 00:28:27;;;;;;;9.13;3.30;;;17.80;96.80;;;;;;4176647;28;20553;-61
2023/07/03 00:30:27;;;;;;;12.68;3.97;;;17.80;97.60;;;;;;4176439;28;20075;-64
2023/07/03 00:32:28;;;;;;;13.45;3.70;;;17.70;98.00;;;;;;4176229;28;20033;-62
2023/07/03 00:34:28;;;;;;;10.60;3.38;;;17.80;96.80;;;;;;4174908;28;20505;-60
2023/07/03 00:36:29;;;;;;;7.43;2.95;;;17.80;99.20;;;;;;4175984;28;20029;-59
2023/07/03 00:38:30;;;;;;;11.18;3.30;;;17.80;97.60;;;;;;4174510;28;20143;-60
2023/07/03 00:40:31;;;;;;;11.63;3.30;;;17.80;97.80;;;;;;4175685;28;20532;-64
2023/07/03 00:42:31;;;;;;;8.57;2.88;;;17.80;98.40;;;;;;4177256;28;20503;-60
2023/07/03 00:44:32;;;;;;;10.48;3.67;;;17.80;98.00;;;;;;4175546;28;20112;-60
2023/07/03 00:46:32;;;;;;;13.60;3.65;;;17.80;97.90;;;;;;4174677;28;20037;-60
2023/07/03 00:48:34;;;;;;;9.68;3.00;;;17.80;98.50;;;;;;4175678;28;20079;-60
2023/07/03 00:50:35;;;;;;;10.05;2.88;;;17.80;98.00;;;;;;4173802;28;20030;-60
2023/07/03 00:52:37;;;;;;;9.27;3.35;;;17.70;97.40;;;;;;4173098;28;20037;-60
2023/07/03 00:54:38;;;;;;;14.18;3.65;;;17.70;98.60;;;;;;4175623;28;20025;-60
2023/07/03 00:56:40;;;;;;;11.65;3.78;;;17.60;97.30;;;;;;4175238;28;20036;-60
2023/07/03 00:58:40;;;;;;;10.77;3.33;;;17.50;98.30;;;;;;4174692;28;20526;-59
2023/07/03 01:00:55;;;;;;;13.23;3.65;;;17.60;99.20;;;;;;4176540;28;20049;-60
2023/07/03 01:03:19;;;;;;;7.70;3.45;;;17.60;98.10;;;;;;4176445;28;20373;-60
2023/07/03 01:05:25;;;;;;;10.27;3.50;;;17.60;97.70;;;;;;4171706;28;20499;-60
2023/07/03 01:07:31;;;;;;;9.82;3.03;;;17.60;98.40;;;;;;4175736;28;20025;-60
2023/07/03 01:09:45;;;;;;;9.32;3.08;;;17.60;98.50;;;;;;4171502;28;20141;-60
2023/07/03 01:11:47;;;;;;;8.93;3.20;;;17.50;98.40;;;;;;4172419;28;20090;-60
2023/07/03 01:13:51;;;;;;;12.93;3.38;;;17.60;98.00;;;;;;4143104;28;20050;-60
2023/07/03 01:15:52;;;;;;;10.60;3.55;;;17.50;98.10;;;;;;4174025;28;20090;-60
2023/07/03 01:17:55;;;;;;;9.63;3.72;;;17.50;99.20;;;;;;4171555;28;20498;-59
2023/07/03 01:19:59;;;;;;;13.23;3.53;;;17.50;98.20;;;;;;4175286;28;20044;-60
2023/07/03 01:22:13;;;;;;;9.63;3.45;;;17.40;99.20;;;;;;4173659;28;20041;-60
2023/07/03 01:24:29;;;;;;;7.68;2.83;;;17.40;99.50;;;;;;4172055;28;20745;-60
2023/07/03 01:26:31;;;;;;;8.73;3.40;;;17.40;98.50;;;;;;4175768;28;20475;-60
2023/07/03 01:28:33;;;;;;;13.35;3.97;;;17.40;99.00;;;;;;4172700;28;20045;-63
2023/07/03 01:30:35;;;;;;;18.63;3.80;;;17.40;99.10;;;;;;4175936;28;20033;-60
2023/07/03 01:32:37;;;;;;;14.23;4.22;;;17.40;99.90;;;;;;4175111;28;20392;-60
2023/07/03 01:34:43;;;;;;;11.10;3.65;;;17.40;99.10;;;;;;4175037;28;20086;-60
2023/07/03 01:36:44;;;;;;;13.77;3.80;;;17.30;99.20;;;;;;4157393;28;20116;-60
2023/07/03 01:38:47;;;;;;;15.80;4.15;;;17.30;98.70;;;;;;4173933;28;20029;-59
2023/07/03 01:40:48;;;;;;;16.35;4.45;;;17.30;99.50;;;;;;4174390;28;20107;-60
2023/07/03 01:42:50;;;;;;;14.77;4.03;;;17.30;99.50;;;;;;4175611;28;20045;-60
2023/07/03 01:44:51;;;;;;;10.85;3.80;;;17.30;99.70;;;;;;4174987;28;21626;-60
2023/07/03 01:46:51;;;;;;;13.07;3.65;;;17.30;99.90;;;;;;4174091;28;20044;-60
2023/07/03 01:48:52;;;;;;;9.35;3.72;;;17.30;99.80;;;;;;4175740;28;20082;-60
2023/07/03 01:50:52;;;;;;;14.27;3.97;;;17.20;99.50;;;;;;4172467;28;20029;-60
2023/07/03 01:52:57;;;;;;;13.07;3.78;;;17.20;99.50;;;;;;4174646;28;20111;-60
2023/07/03 01:55:09;;;;;;;8.10;3.05;;;17.10;99.40;;;;;;4172851;28;20035;-60
2023/07/03 01:57:16;;;;;;;12.88;3.78;;;17.20;99.80;;;;;;4173633;28;20071;-60
2023/07/03 01:59:20;;;;;;;12.23;3.55;;;17.20;99.90;;;;;;4173895;28;20492;-59
2023/07/03 02:01:49;;;;;;;12.82;3.97;;;17.20;99.90;;;;;;4169961;28;20041;-60
2023/07/03 02:03:54;;;;;;;13.23;3.42;;;17.20;99.90;;;;;;4171782;28;20040;-60
2023/07/03 02:05:56;;;;;;;8.90;3.13;;;17.20;99.90;;;;;;4172401;28;20029;-60
2023/07/03 02:08:00;;;;;;;11.02;3.22;;;17.20;99.90;;;;;;4172599;28;20036;-60
2023/07/03 02:10:02;;;;;;;12.07;3.28;;;17.20;99.90;;;;;;4172480;28;20041;-60
2023/07/03 02:12:07;;;;;;;10.35;3.75;;;17.30;99.90;;;;;;4169172;28;20032;-63
2023/07/03 02:14:08;;;;;;;10.85;3.40;;;17.30;99.90;;;;;;4174867;28;20056;-60
2023/07/03 02:16:09;;;;;;;15.82;3.92;;;17.30;99.90;;;;;;4174177;28;20059;-60
2023/07/03 02:18:17;;;;;;;10.35;2.92;;;17.30;99.90;;;;;;4172973;28;20025;-60
2023/07/03 02:20:18;;;;;;;12.23;3.63;;;17.30;99.90;;;;;;4155721;28;20033;-60
2023/07/03 02:22:18;;;;;;;13.77;3.95;;;17.20;99.90;;;;;;4175668;28;20063;-59
2023/07/03 02:24:19;;;;;;;10.68;3.70;;;17.30;99.90;;;;;;4174021;28;20072;-60
2023/07/03 02:26:19;;;;;;;11.05;3.88;;;17.30;99.90;;;;;;4173685;28;20100;-60
2023/07/03 02:28:20;;;;;;;13.30;3.70;;;17.20;99.90;;;;;;4174938;28;22901;-60
2023/07/03 02:30:20;;;;;;;13.68;3.83;;;17.20;99.90;;;;;;4174847;28;20541;-60
2023/07/03 02:32:21;;;;;;;10.02;3.97;;;17.20;99.90;;;;;;4173600;28;20472;-59
2023/07/03 02:34:22;;;;;;;8.70;3.30;;;17.20;99.90;;;;;;4172372;28;20046;-60
2023/07/03 02:36:28;;;;;;;9.38;3.35;;;17.20;99.90;;;;;;4173985;28;20052;-60
2023/07/03 02:38:29;;;;;;;13.32;3.80;;;17.20;99.90;;;;;;4174427;28;20116;-60
2023/07/03 02:40:30;;;;;;;12.40;3.80;;;17.20;99.90;;;;;;4173050;28;20029;-60
2023/07/03 02:42:30;;;;;;;13.63;3.95;;;17.10;99.90;;;;;;4175056;28;20029;-60
2023/07/03 02:44:31;;;;;;;9.55;3.60;;;17.10;99.90;;;;;;4173475;28;20030;-64
2023/07/03 02:46:31;;;;;;;8.82;3.63;;;17.10;99.90;;;;;;4173952;28;20457;-61
2023/07/03 02:48:32;;;;;;;10.07;3.15;;;17.10;99.90;;;;;;4171691;28;20041;-60
2023/07/03 02:50:33;;;;;;;9.95;3.25;;;17.10;99.90;;;;;;4165243;28;20046;-64
2023/07/03 02:52:33;;;;;;;9.73;3.53;;;17.10;99.90;;;;;;4168048;28;20036;-61
2023/07/03 02:54:34;;;;;;;12.57;3.25;;;17.10;99.90;;;;;;4165253;28;20034;-60
2023/07/03 02:56:35;;;;;;;13.68;3.72;;;17.10;99.90;;;;;;4163050;28;20033;-61
2023/07/03 02:58:36;;;;;;;20.83;4.75;;;17.00;99.90;;;;;;4162878;28;20034;-60
2023/07/03 03:00:36;;;;;;;11.23;3.38;;;17.00;99.90;;;;;;4167335;28;20030;-60
2023/07/03 03:02:37;;;;;;;13.75;4.13;;;17.00;99.90;;;;;;4162313;28;20033;-60
2023/07/03 03:04:38;;;;;;;9.98;3.90;;;17.00;99.90;;;;;;4157313;28;20030;-60
2023/07/03 03:06:38;;;;;;;12.57;4.50;;;17.00;99.90;;;;;;4167117;28;20400;-60
2023/07/03 03:08:39;;;;;;;15.07;4.30;;;17.00;99.90;;;;;;4168654;28;20096;-60
2023/07/03 03:10:39;;;;;;;15.10;4.60;;;17.00;99.90;;;;;;4169716;28;20056;-61
2023/07/03 03:12:40;;;;;;;14.38;4.05;;;16.80;99.90;;;;;;4174992;28;20032;-60
2023/07/03 03:14:41;;;;;;;16.77;3.72;;;16.80;99.90;;;;;;4174604;28;20374;-59
2023/07/03 03:16:41;;;;;;;16.85;3.90;;;16.80;99.90;;;;;;4174516;28;20087;-60
2023/07/03 03:18:42;;;;;;;14.13;4.05;;;16.80;99.90;;;;;;4157775;28;20034;-60
2023/07/03 03:20:44;;;;;;;15.15;4.13;;;16.70;99.90;;;;;;4149346;28;20021;-60
2023/07/03 03:22:44;;;;;;;12.52;4.05;;;16.80;99.90;;;;;;4166000;28;20121;-60
2023/07/03 03:24:45;;;;;;;9.60;3.47;;;16.70;99.90;;;;;;4149451;28;20037;-60
2023/07/03 03:26:46;;;;;;;18.17;5.22;;;16.70;99.90;;;;;;4164520;28;20093;-60
2023/07/03 03:28:46;;;;;;;13.57;3.63;;;16.60;99.90;;;;;;4162987;28;20045;-60
2023/07/03 03:30:47;;;;;;;15.45;4.18;;;16.70;99.90;;;;;;4162818;28;20120;-60
2023/07/03 03:32:48;;;;;;;11.90;4.30;;;16.60;99.90;;;;;;4158676;28;20116;-60
2023/07/03 03:34:50;;;;;;;17.52;4.70;;;16.60;99.90;;;;;;4156149;28;20131;-60
2023/07/03 03:36:50;;;;;;;14.10;3.97;;;16.60;99.90;;;;;;4139790;28;20042;-60
2023/07/03 03:38:51;;;;;;;14.77;4.03;;;16.60;99.90;;;;;;4164397;28;20090;-60
2023/07/03 03:40:57;;;;;;;15.20;3.95;;;16.60;99.90;;;;;;4155210;28;20034;-60
2023/07/03 03:42:57;;;;;;;13.68;3.85;;;16.60;99.90;;;;;;4167097;28;20402;-59
2023/07/03 03:44:58;;;;;;;14.60;4.45;;;16.60;99.90;;;;;;4139977;28;20050;-60
2023/07/03 03:46:58;;;;;;;14.35;4.03;;;16.50;99.90;;;;;;4163379;28;20030;-60
2023/07/03 03:48:59;;;;;;;13.65;4.00;;;16.60;99.90;;;;;;4158184;28;20025;-60
2023/07/03 03:51:00;;;;;;;14.63;4.07;;;16.60;99.90;;;;;;4162489;28;20503;-59
2023/07/03 03:53:01;;;;;;;16.13;4.22;;;16.60;99.90;;;;;;4167181;28;20033;-60
2023/07/03 03:55:01;;;;;;;12.52;3.63;;;16.60;99.90;;;;;;4160568;28;20044;-62
2023/07/03 03:57:03;;;;;;;13.25;3.97;;;16.50;99.90;;;;;;4160951;28;20045;-60
2023/07/03 03:59:03;;;;;;;16.08;4.32;;;16.60;99.90;;;;;;4159174;28;20029;-60
2023/07/03 04:01:04;;;;;;;17.17;4.97;;;16.50;99.90;;;;;;4150596;28;20030;-60
2023/07/03 04:03:05;;;;;;;14.65;4.25;;;16.50;99.90;;;;;;4158990;28;20393;-64
2023/07/03 04:05:06;;;;;;;15.27;3.92;;;16.50;99.90;;;;;;4157400;28;20033;-62
2023/07/03 04:07:06;;;;;;;16.45;4.60;;;16.50;99.90;;;;;;4160613;28;20033;-60
2023/07/03 04:09:07;;;;;;;18.55;4.50;;;16.40;99.90;;;;;;4146279;28;20034;-60
2023/07/03 04:11:09;;;;;;;16.70;4.57;;;16.50;99.90;;;;;;4150359;28;20030;-60
2023/07/03 04:13:11;;;;;;;16.00;4.53;;;16.50;99.90;;;;;;4166732;28;20538;-60
2023/07/03 04:15:11;;;;;;;19.95;4.85;;;16.50;99.90;;;;;;4162211;28;20385;-64
2023/07/03 04:17:12;;;;;;;13.85;4.38;;;16.50;99.90;;;;;;4161846;28;20052;-59
2023/07/03 04:19:14;;;;;;;18.30;4.50;;;16.40;99.90;;;;;;4171339;28;20388;-60
2023/07/03 04:21:15;;;;;;;15.25;4.30;;;16.50;99.90;;;;;;4148187;28;20045;-60
2023/07/03 04:23:16;;;;;;;12.60;3.90;;;16.50;99.90;;;;;;4162511;28;20057;-60
2023/07/03 04:25:17;;;;;;;18.90;4.57;;;16.40;99.90;;;;;;4158046;28;20048;-60
2023/07/03 04:27:18;;;;;;;15.98;4.43;;;16.50;99.90;;;;;;4161488;28;20030;-60
2023/07/03 04:29:19;;;;;;;12.85;3.70;;;16.50;99.90;;;;;;4164835;28;20044;-60
2023/07/03 04:31:19;;;;;;;17.98;4.93;;;16.50;99.90;;;;;;4165048;28;20116;-60
2023/07/03 04:33:20;;;;;;;15.43;4.60;;;16.50;99.90;;;;;;4152098;28;20073;-60
2023/07/03 04:35:21;;;;;;;20.80;4.28;;;16.60;99.90;;;;;;4163318;28;20087;-60
2023/07/03 04:37:22;;;;;;;18.77;4.43;;;16.60;99.90;;;;;;4162621;28;20094;-60
2023/07/03 04:39:23;;;;;;;20.60;5.22;;;16.70;99.90;;;;;;4166481;28;20070;-60
2023/07/03 04:41:24;;;;;;;13.93;4.38;;;16.70;99.90;;;;;;4158928;28;20109;-60
2023/07/03 04:43:25;;;;;;;15.63;5.10;;;16.70;99.90;;;;;;4168432;28;20469;-60
2023/07/03 04:45:26;;;;;;;14.68;4.50;;;16.70;99.90;;;;;;4165542;28;20091;-59
2023/07/03 04:47:27;;;;;;;15.85;4.53;;;16.70;99.90;;;;;;4148660;28;20042;-60
2023/07/03 04:49:29;;;;;;;17.55;5.20;;;16.70;99.90;;;;;;4154900;28;20393;-60
2023/07/03 04:51:30;;;;;;;20.30;4.70;;;16.70;99.90;;;;;;4162203;28;20111;-60
2023/07/03 04:53:39;;;;;;;19.00;4.97;;;16.70;99.90;;;;;;4168590;28;20047;-60
2023/07/03 04:55:40;;;;;;;18.30;4.60;;;16.70;99.90;;;;;;4161320;28;20424;-60
2023/07/03 04:57:42;;;;;;;17.25;4.63;;;16.70;99.90;;;;;;4159343;28;20041;-60
2023/07/03 04:59:43;;;;;;;16.00;4.97;;;16.70;99.90;;;;;;4159089;28;20037;-60
2023/07/03 05:01:44;;;;;;;17.63;4.80;;;16.70;99.90;;;;;;4159477;28;20462;-60
2023/07/03 05:03:44;;;;;;;19.63;4.82;;;16.70;99.90;;;;;;4170483;28;20042;-60
2023/07/03 05:05:45;;;;;;;19.95;5.10;;;16.80;99.90;;;;;;4142934;28;20049;-59
2023/07/03 05:07:46;;;;;;;18.75;4.60;;;16.80;99.90;;;;;;4163116;28;20041;-60
2023/07/03 05:09:47;;;;;;;13.35;4.05;;;16.80;99.90;;;;;;4167354;28;20061;-60
2023/07/03 05:11:48;;;;;;;16.73;4.43;;;16.80;99.90;;;;;;4156012;28;20532;-60
2023/07/03 05:13:49;;;;;;;22.58;5.40;;;16.90;99.90;;;;;;4156855;28;20037;-62
2023/07/03 05:15:49;;;;;;;15.05;4.43;;;16.90;99.90;;;;;;4163287;28;20050;-62
2023/07/03 05:17:52;;;;;;;16.13;4.93;;;16.90;99.90;;;;;;4156696;28;20033;-62
2023/07/03 05:19:53;;;;;;;16.50;4.30;;;16.90;99.90;;;;;;4153682;28;20040;-62
2023/07/03 05:21:54;;;;;;;14.38;4.15;;;16.90;99.90;;;;;;4159875;28;20029;-62
2023/07/03 05:23:54;;;;;;;20.85;5.22;;;16.90;99.90;;;;;;4162590;28;20415;-62
2023/07/03 05:25:55;;;;;;;12.60;3.53;;;16.90;99.90;;;;;;4164519;28;20029;-62
2023/07/03 05:27:55;;;;;;;13.27;4.13;;;16.90;99.90;;;;;;4155412;28;20078;-62
2023/07/03 05:29:57;;;;;;;13.77;4.55;;;17.00;99.90;;;;;;4164045;28;20033;-62
2023/07/03 05:32:00;;;;;;;20.02;5.25;;;17.00;99.90;;;;;;4159251;28;20026;-62
2023/07/03 05:34:00;;;;;;;19.42;5.28;;;17.00;99.90;;;;;;4169018;28;20075;-62
2023/07/03 05:36:02;;;;;;;15.40;4.85;;;17.00;99.90;;;;;;4144147;28;20034;-62
2023/07/03 05:38:03;;;;;;;23.30;5.57;;;17.00;99.90;;;;;;4139403;28;20057;-63
2023/07/03 05:40:06;;;;;;;19.08;4.97;;;17.10;99.90;;;;;;4165557;28;20040;-63
2023/07/03 05:42:07;;;;;;;11.75;3.72;;;17.00;99.90;;;;;;4158995;28;20079;-62
2023/07/03 05:44:08;;;;;;;20.15;5.60;;;17.10;99.90;;;;;;4162854;28;20497;-62
2023/07/03 05:46:09;;;;;;;17.88;4.93;;;17.10;99.90;;;;;;4161861;28;20035;-62
2023/07/03 05:48:10;;;;;;;16.25;4.38;;;17.10;99.90;;;;;;4158047;28;20470;-63
2023/07/03 05:50:10;;;;;;;17.45;4.90;;;17.20;99.90;;;;;;4160732;28;20079;-66
2023/07/03 05:52:11;;;;;;;24.70;5.55;;;17.20;99.90;;;;;;4160890;28;20056;-63
2023/07/03 05:54:12;;;;;;;10.00;3.80;;;17.30;99.90;;;;;;4161915;28;20037;-62
2023/07/03 05:56:14;;;;;;;20.50;5.60;;;17.60;99.90;;;;;;4158285;28;20164;-62
2023/07/03 05:58:15;;;;;;;21.00;5.40;;;17.90;99.90;;;;;;4164159;28;20029;-62
2023/07/03 06:00:15;;;;;;;18.17;5.13;;;18.10;99.90;;;;;;4155324;28;20041;-62
2023/07/03 06:02:17;;;;;;;14.88;4.35;;;18.30;99.90;;;;;;4165560;28;20078;-62
2023/07/03 06:04:17;;;;;;;15.77;4.20;;;18.50;99.90;;;;;;4162394;28;20033;-62
2023/07/03 06:06:18;;;;;;;16.92;5.15;;;18.80;99.90;;;;;;4156974;28;20105;-63
2023/07/03 06:08:18;;;;;;;12.40;4.32;;;19.10;99.90;;;;;;4159912;28;20033;-63
2023/07/03 06:10:19;;;;;;;22.10;5.78;;;19.30;99.90;;;;;;4164635;28;20062;-63
2023/07/03 06:12:20;;;;;;;12.57;4.43;;;19.40;99.90;;;;;;4160084;28;20022;-63
2023/07/03 06:14:20;;;;;;;14.82;4.22;;;19.50;99.90;;;;;;4159443;28;20017;-63
2023/07/03 06:16:21;;;;;;;13.05;4.18;;;19.70;99.90;;;;;;4153142;28;20118;-63
2023/07/03 06:18:22;;;;;;;14.25;4.78;;;19.80;99.90;;;;;;4164788;28;20025;-63
2023/07/03 06:20:23;;;;;;;20.67;5.22;;;20.00;99.90;;;;;;4155815;28;20634;-63
2023/07/03 06:22:24;;;;;;;11.38;4.22;;;20.00;99.90;;;;;;4151370;28;20024;-63
2023/07/03 06:24:25;;;;;;;10.75;3.53;;;20.10;99.90;;;;;;4149543;28;20037;-63
2023/07/03 06:26:28;;;;;;;15.00;4.82;;;20.10;99.90;;;;;;4152057;28;20084;-63
2023/07/03 06:28:28;;;;;;;17.58;4.90;;;19.90;99.90;;;;;;4163838;28;20563;-63
2023/07/03 06:30:29;;;;;;;14.00;4.30;;;19.70;99.90;;;;;;4165378;28;20034;-63
2023/07/03 06:32:29;;;;;;;18.98;5.78;;;19.50;99.90;;;;;;4168882;28;20029;-63
2023/07/03 06:34:30;;;;;;;17.50;4.90;;;19.40;99.90;;;;;;4166704;28;20112;-63
2023/07/03 06:36:32;;;;;;;12.02;4.50;;;19.30;99.90;;;;;;4160426;28;20370;-63
2023/07/03 06:38:32;;;;;;;18.60;5.10;;;19.20;99.90;;;;;;4153840;28;20041;-63
2023/07/03 06:40:33;;;;;;;19.20;4.60;;;19.10;99.90;;;;;;4133443;28;20681;-68
2023/07/03 06:42:33;;;;;;;16.33;4.30;;;18.90;99.90;;;;;;4150165;28;20029;-63
2023/07/03 06:44:34;;;;;;;11.80;3.75;;;19.00;99.90;;;;;;4149566;28;20034;-63
2023/07/03 06:46:35;;;;;;;18.70;5.10;;;18.90;99.90;;;;;;4148659;28;20366;-63
2023/07/03 06:48:35;;;;;;;17.05;4.32;;;18.90;99.90;;;;;;4146341;28;20033;-64
2023/07/03 06:50:36;;;;;;;11.70;3.80;;;18.80;99.90;;;;;;4131241;28;20704;-63
2023/07/03 06:52:37;;;;;;;16.23;4.80;;;18.80;99.90;;;;;;4140712;28;20285;-63
2023/07/03 06:54:38;;;;;;;13.15;4.68;;;18.80;99.90;;;;;;4151782;28;20193;-63
2023/07/03 06:56:38;;;;;;;18.45;4.82;;;18.70;99.90;;;;;;4149800;28;20856;-63
2023/07/03 06:58:39;;;;;;;31.20;5.80;;;18.70;99.90;;;;;;4150470;28;20323;-63
2023/07/03 07:00:39;;;;;;;13.05;4.75;;;18.60;99.90;;;;;;4146697;28;20500;-62
2023/07/03 07:02:40;;;;;;;15.00;4.43;;;18.60;99.90;;;;;;4133587;28;20038;-62
2023/07/03 07:04:42;;;;;;;15.93;4.35;;;18.60;99.90;;;;;;4146780;28;20037;-63
2023/07/03 07:06:43;;;;;;;18.85;5.43;;;18.60;99.90;;;;;;4145234;28;20041;-63
2023/07/03 07:08:44;;;;;;;15.38;4.38;;;18.60;99.90;;;;;;4150303;28;20049;-63
2023/07/03 07:10:45;;;;;;;14.57;4.88;;;18.60;99.90;;;;;;4153151;28;20512;-63
2023/07/03 07:12:46;;;;;;;18.73;5.15;;;18.60;99.90;;;;;;4151850;28;20044;-64
2023/07/03 07:14:46;;;;;;;14.35;4.47;;;18.60;99.90;;;;;;4150021;28;20481;-63
2023/07/03 07:16:47;;;;;;;16.38;5.05;;;18.70;99.90;;;;;;4148153;28;20396;-63
2023/07/03 07:18:50;;;;;;;18.88;4.43;;;18.70;99.90;;;;;;4148772;28;20366;-63
2023/07/03 07:20:54;;;;;;;23.30;5.95;;;18.70;99.90;;;;;;4146871;28;20084;-63
2023/07/03 07:22:54;;;;;;;20.35;5.35;;;18.70;99.90;;;;;;4131905;28;20085;-63
2023/07/03 07:24:55;;;;;;;19.10;5.00;;;18.70;99.90;;;;;;4141159;28;20018;-63
2023/07/03 07:26:58;;;;;;;11.57;3.60;;;18.80;99.90;;;;;;4146252;28;20485;-63
2023/07/03 07:29:03;;;;;;;16.30;5.15;;;18.90;99.90;;;;;;4151173;28;20428;-63
2023/07/03 07:31:03;;;;;;;19.65;5.88;;;19.10;99.90;;;;;;4147352;28;20038;-63
2023/07/03 07:33:04;;;;;;;13.13;4.53;;;19.20;99.90;;;;;;4143083;28;20045;-65
2023/07/03 07:35:08;;;;;;;12.45;4.10;;;19.30;99.90;;;;;;4146167;28;20057;-64
2023/07/03 07:37:09;;;;;;;13.60;4.38;;;19.40;99.90;;;;;;4148251;28;20045;-63
2023/07/03 07:39:10;;;;;;;17.50;4.88;;;19.50;99.90;;;;;;4152553;28;20030;-63
2023/07/03 07:41:11;;;;;;;13.63;4.10;;;19.50;99.90;;;;;;4152026;28;20606;-63
2023/07/03 07:43:12;;;;;;;14.77;4.82;;;19.50;99.90;;;;;;4153052;28;20040;-63
2023/07/03 07:45:12;;;;;;;12.93;4.57;;;19.60;99.90;;;;;;4140226;28;20233;-64
2023/07/03 07:47:13;;;;;;;16.70;5.15;;;19.60;99.90;;;;;;4128175;28;20482;-64
2023/07/03 07:49:14;;;;;;;14.82;3.85;;;19.60;99.90;;;;;;4150353;28;20443;-63
2023/07/03 07:51:15;;;;;;;11.90;4.13;;;19.50;99.90;;;;;;4147120;28;20032;-63
2023/07/03 07:53:15;;;;;;;13.75;4.72;;;19.50;99.90;;;;;;4147973;28;20067;-63
2023/07/03 07:55:17;;;;;;;10.77;3.75;;;19.50;99.90;;;;;;4147328;28;20026;-63
2023/07/03 07:57:17;;;;;;;17.67;5.50;;;19.40;99.90;;;;;;4145995;28;20330;-63
2023/07/03 07:59:18;;;;;;;12.35;4.07;;;19.40;99.90;;;;;;4148981;28;20092;-63
2023/07/03 08:01:19;;;;;;;13.73;4.18;;;19.40;99.90;;;;;;4130224;28;20030;-62
2023/07/03 08:03:20;;;;;;;12.35;4.00;;;19.40;99.90;;;;;;4147411;28;20041;-63
2023/07/03 08:05:20;;;;;;;12.18;3.97;;;19.50;99.90;;;;;;4144689;28;20030;-63
2023/07/03 08:07:21;;;;;;;18.30;3.88;;;19.50;99.90;;;;;;4147321;28;20037;-63
2023/07/03 08:09:23;;;;;;;19.35;4.47;;;19.60;99.90;;;;;;4149313;28;20596;-63
2023/07/03 08:11:28;;;;;;;13.20;4.30;;;19.60;99.90;;;;;;4149091;28;20045;-63
2023/07/03 08:13:30;;;;;;;16.65;4.65;;;19.60;99.90;;;;;;4148225;28;20033;-63
2023/07/03 08:15:31;;;;;;;17.35;4.13;;;19.60;99.90;;;;;;4143548;28;20041;-63
2023/07/03 08:17:32;;;;;;;15.02;4.60;;;19.60;99.90;;;;;;4145162;28;20049;-63
2023/07/03 08:19:32;;;;;;;14.88;4.03;;;19.60;99.90;;;;;;4146554;28;26008;-63
2023/07/03 08:21:33;;;;;;;14.23;3.63;;;19.60;99.90;;;;;;4144835;28;20592;-63
2023/07/03 08:23:34;;;;;;;14.23;3.60;;;19.70;99.90;;;;;;4148705;28;20427;-63
2023/07/03 08:25:34;;;;;;;10.55;3.33;;;19.70;99.90;;;;;;4130491;28;20042;-66
2023/07/03 08:27:35;;;;;;;16.27;4.07;;;19.80;99.90;;;;;;4145726;28;20038;-64
2023/07/03 08:29:35;;;;;;;15.68;4.25;;;19.80;99.90;;;;;;4146530;28;20065;-63
2023/07/03 08:31:36;;;;;;;12.63;3.28;;;19.90;99.90;;;;;;4147550;28;20057;-63
2023/07/03 08:33:37;;;;;;;12.77;4.05;;;19.90;99.90;;;;;;4159794;28;20048;-63
2023/07/03 08:35:37;;;;;;;11.68;3.63;;;19.90;99.90;;;;;;4177279;28;20068;-63
2023/07/03 08:37:38;;;;;;;12.65;4.05;;;20.00;99.90;;;;;;4172035;28;20504;-63
2023/07/03 08:39:39;;;;;;;11.50;3.75;;;20.00;99.90;;;;;;4178590;28;20040;-63
2023/07/03 08:41:51;;;;;;;12.05;3.47;;;20.00;99.90;;;;;;4178009;28;20784;-63
2023/07/03 08:43:55;;;;;;;9.30;3.33;;;19.90;99.90;;;;;;4174921;28;20458;-63
2023/07/03 08:45:56;;;;;;;13.82;3.97;;;19.90;99.90;;;;;;4175889;28;20339;-63
2023/07/03 08:47:59;;;;;;;19.75;4.63;;;19.90;99.90;;;;;;4172273;28;20037;-63
2023/07/03 08:50:03;;;;;;;15.85;4.13;;;20.00;99.90;;;;;;4174541;28;20348;-63
2023/07/03 08:52:04;;;;;;;9.40;3.22;;;20.00;99.90;;;;;;4177302;28;20586;-63
2023/07/03 08:54:29;;;;;;;13.43;3.55;;;19.90;99.90;;;;;;4177792;28;20781;-63
2023/07/03 08:56:33;;;;;;;11.82;3.60;;;20.10;99.90;;;;;;4175757;28;20136;-64
2023/07/03 08:58:33;;;;;;;8.15;3.38;;;20.10;99.90;;;;;;4174810;28;20028;-63
2023/07/03 09:00:42;;;;;;;13.07;3.60;;;20.20;99.70;;;;;;4175348;28;20068;-63
2023/07/03 09:02:45;;;;;;;13.98;3.60;;;20.20;99.90;;;;;;4176355;28;20063;-63
2023/07/03 09:05:13;;;;;;;18.10;4.65;;;20.10;99.60;;;;;;4172123;28;20492;-64
2023/07/03 09:07:22;;;;;;;13.60;4.15;;;20.00;97.90;;;;;;4179349;28;20028;-63
2023/07/03 09:10:00;;;;;;;14.68;4.28;;;19.90;98.20;;;;;;4174818;28;20071;-63
2023/07/03 09:12:09;;;;;;;7.90;2.92;;;19.80;98.90;;;;;;4176698;28;20295;-63
2023/07/03 09:14:18;;;;;;;14.10;4.15;;;19.80;99.90;;;;;;4173427;28;20037;-63
2023/07/03 09:16:22;;;;;;;8.63;3.78;;;19.70;98.60;;;;;;4169360;28;20029;-63
2023/07/03 09:18:28;;;;;;;12.88;3.97;;;19.60;99.50;;;;;;4177135;28;20090;-63
2023/07/03 09:20:30;;;;;;;10.82;3.38;;;19.60;99.60;;;;;;4170879;28;20037;-63
2023/07/03 09:22:42;;;;;;;;;;;19.60;99.90;;;;;;4177743;28;20175;-63
2023/07/03 09:24:44;;;;;;;12.95;3.40;;;19.70;99.90;;;;;;4177078;28;19944;-64
2023/07/03 09:26:53;;;;;;;11.93;3.95;;;19.70;99.60;;;;;;4177023;28;20417;-63
2023/07/03 09:28:58;;;;;;;10.63;4.10;;;19.80;99.40;;;;;;4178388;28;20033;-63
2023/07/03 09:30:59;;;;;;;11.32;4.13;;;19.90;99.10;;;;;;4174349;28;20033;-63
2023/07/03 09:33:00;;;;;;;13.82;3.65;;;20.00;98.80;;;;;;4177263;28;20051;-63
2023/07/03 09:35:03;;;;;;;17.48;3.90;;;20.10;99.90;;;;;;4183089;28;20028;-63
2023/07/03 09:37:06;;;;;;;12.88;4.22;;;20.20;98.20;;;;;;4159022;28;20045;-63
2023/07/03 09:39:13;;;;;;;14.55;3.65;;;20.30;99.00;;;;;;4178479;28;20429;-64
2023/07/03 09:41:28;;;;;;;8.20;3.40;;;20.30;97.60;;;;;;4180297;28;20051;-63
2023/07/03 09:43:31;;;;;;;8.73;3.10;;;20.30;98.20;;;;;;4178893;28;20035;-63
2023/07/03 09:45:34;;;;;;;11.02;3.38;;;20.40;97.60;;;;;;4176800;28;20033;-63
2023/07/03 09:47:35;;;;;;;10.25;3.13;;;20.50;98.00;;;;;;4179706;28;20033;-63
2023/07/03 09:49:36;;;;;;;10.95;3.35;;;20.60;99.10;;;;;;4182355;28;20125;-63
2023/07/03 09:51:37;;;;;;;8.48;2.88;;;20.70;97.30;;;;;;4180317;28;20484;-64
2023/07/03 09:53:39;;;;;;;10.82;3.17;;;20.80;96.00;;;;;;4177584;28;20036;-64
2023/07/03 09:55:40;;;;;;;9.75;2.72;;;20.90;96.70;;;;;;4176626;28;20036;-63
2023/07/03 09:57:40;;;;;;;11.18;3.28;;;20.90;95.90;;;;;;4177521;28;20036;-63
2023/07/03 09:59:41;;;;;;;12.93;3.22;;;21.00;97.80;;;;;;4176121;28;20036;-63
2023/07/03 10:01:43;;;;;;;8.63;2.83;;;21.10;95.20;;;;;;4180999;28;20578;-63
2023/07/03 10:03:45;;;;;;;12.93;4.00;;;21.10;96.10;;;;;;4180883;28;20047;-64
2023/07/03 10:05:45;;;;;;;12.57;3.80;;;21.20;97.10;;;;;;4179703;28;20365;-63
2023/07/03 10:07:47;;;;;;;12.15;3.45;;;21.20;96.80;;;;;;4179532;28;20063;-63
2023/07/03 10:09:49;;;;;;;11.02;3.63;;;21.20;94.30;;;;;;4180097;28;20123;-64
2023/07/03 10:12:02;;;;;;;11.45;3.53;;;21.10;94.40;;;;;;4177508;28;20041;-64
2023/07/03 10:14:05;;;;;;;6.63;2.65;;;21.10;94.80;;;;;;4178576;28;20037;-63
2023/07/03 10:16:07;;;;;;;10.38;3.25;;;21.20;95.90;;;;;;4176527;28;20048;-67
2023/07/03 10:18:10;;;;;;;10.77;3.53;;;21.20;95.10;;;;;;4147276;28;20049;-63
2023/07/03 10:20:19;;;;;;;9.77;3.20;;;21.10;93.50;;;;;;4179405;28;20035;-65
2023/07/03 10:22:20;;;;;;;8.82;2.90;;;21.20;94.00;;;;;;4174792;28;20114;-63
2023/07/03 10:24:21;;;;;;;9.73;3.42;;;21.20;93.40;;;;;;4184492;28;20037;-64
2023/07/03 10:26:28;;;;;;;13.05;3.30;;;21.20;93.30;;;;;;4175689;28;20514;-64
2023/07/03 10:28:38;;;;;;;7.57;2.88;;;21.10;94.20;;;;;;4175480;28;20055;-63